sensor_id;sensor_type;location;lat;lon;timestamp;P1;P2;P0
57049;PMS7003;42935;50.966;16.992;2023-06-14T00:02:12;16;13;9
57049;PMS7003;42935;50.966;16.992;2023-06-14T00:05:34;14;12;9
57049;PMS7003;42935;50.966;16.992;2023-06-14T00:08:58;13;13;10
57049;PMS7003;42935;50.966;16.992;2023-06-14T00:12:18;19;17;11
57049;PMS7003;42935;50.966;16.992;2023-06-14T00:15:33;19;15;11
57049;PMS7003;42935;50.966;16.992;2023-06-14T00:18:52;15;13;9
57049;PMS7003;42935;50.966;16.992;2023-06-14T00:22:09;15;13;10
57049;PMS7003;42935;50.966;16.992;2023-06-14T00:25:28;20;15;10
57049;PMS7003;42935;50.966;16.992;2023-06-14T00:28:46;18;14;12
57049;PMS7003;42935;50.966;16.992;2023-06-14T00:32:03;15;13;9
57049;PMS7003;42935;50.966;16.992;2023-06-14T00:35:16;18;14;10
57049;PMS7003;42935;50.966;16.992;2023-06-14T00:38:34;14;14;9
57049;PMS7003;42935;50.966;16.992;2023-06-14T00:41:51;16;14;10
57049;PMS7003;42935;50.966;16.992;2023-06-14T00:45:09;15;14;10
57049;PMS7003;42935;50.966;16.992;2023-06-14T00:48:27;19;13;9
57049;PMS7003;42935;50.966;16.992;2023-06-14T00:51:47;16;15;12
57049;PMS7003;42935;50.966;16.992;2023-06-14T00:55:06;16;13;10
57049;PMS7003;42935;50.966;16.992;2023-06-14T00:58:30;21;15;12
57049;PMS7003;42935;50.966;16.992;2023-06-14T01:01:48;16;12;9
57049;PMS7003;42935;50.966;16.992;2023-06-14T01:05:01;20;16;11
57049;PMS7003;42935;50.966;16.992;2023-06-14T01:08:26;17;16;10
57049;PMS7003;42935;50.966;16.992;2023-06-14T01:15:22;18;15;11
57049;PMS7003;42935;50.966;16.992;2023-06-14T01:18:39;17;16;11
57049;PMS7003;42935;50.966;16.992;2023-06-14T01:22:02;19;16;11
57049;PMS7003;42935;50.966;16.992;2023-06-14T01:25:20;18;16;12
57049;PMS7003;42935;50.966;16.992;2023-06-14T01:28:51;30;25;15
57049;PMS7003;42935;50.966;16.992;2023-06-14T01:32:11;23;19;12
57049;PMS7003;42935;50.966;16.992;2023-06-14T01:35:32;22;18;13
57049;PMS7003;42935;50.966;16.992;2023-06-14T01:38:49;21;17;12
57049;PMS7003;42935;50.966;16.992;2023-06-14T01:42:05;20;19;12
57049;PMS7003;42935;50.966;16.992;2023-06-14T01:45:23;24;21;15
57049;PMS7003;42935;50.966;16.992;2023-06-14T01:48:39;18;17;12
57049;PMS7003;42935;50.966;16.992;2023-06-14T01:52:03;21;19;13
57049;PMS7003;42935;50.966;16.992;2023-06-14T01:55:28;21;18;13
57049;PMS7003;42935;50.966;16.992;2023-06-14T01:58:51;20;18;13
57049;PMS7003;42935;50.966;16.992;2023-06-14T02:02:09;16;15;11
57049;PMS7003;42935;50.966;16.992;2023-06-14T02:05:27;25;18;12
57049;PMS7003;42935;50.966;16.992;2023-06-14T02:08:43;21;17;12
57049;PMS7003;42935;50.966;16.992;2023-06-14T02:12:02;17;17;12
57049;PMS7003;42935;50.966;16.992;2023-06-14T02:15:17;18;16;12
57049;PMS7003;42935;50.966;16.992;2023-06-14T02:18:34;25;20;13
57049;PMS7003;42935;50.966;16.992;2023-06-14T02:22:00;19;16;12
57049;PMS7003;42935;50.966;16.992;2023-06-14T02:25:17;20;17;12
57049;PMS7003;42935;50.966;16.992;2023-06-14T02:28:32;17;16;12
57049;PMS7003;42935;50.966;16.992;2023-06-14T02:31:51;21;18;12
57049;PMS7003;42935;50.966;16.992;2023-06-14T02:35:05;22;17;13
57049;PMS7003;42935;50.966;16.992;2023-06-14T02:38:53;19;17;11
57049;PMS7003;42935;50.966;16.992;2023-06-14T02:42:08;18;17;12
57049;PMS7003;42935;50.966;16.992;2023-06-14T02:45:26;16;15;11
57049;PMS7003;42935;50.966;16.992;2023-06-14T02:48:43;18;16;12
57049;PMS7003;42935;50.966;16.992;2023-06-14T02:52:01;17;17;12
57049;PMS7003;42935;50.966;16.992;2023-06-14T02:55:21;19;16;12
57049;PMS7003;42935;50.966;16.992;2023-06-14T02:58:36;24;18;14
57049;PMS7003;42935;50.966;16.992;2023-06-14T03:01:53;24;17;11
57049;PMS7003;42935;50.966;16.992;2023-06-14T03:05:08;18;16;11
57049;PMS7003;42935;50.966;16.992;2023-06-14T03:08:28;19;17;12
57049;PMS7003;42935;50.966;16.992;2023-06-14T03:11:52;22;17;13
57049;PMS7003;42935;50.966;16.992;2023-06-14T03:15:12;18;15;12
57049;PMS7003;42935;50.966;16.992;2023-06-14T03:18:29;19;18;12
57049;PMS7003;42935;50.966;16.992;2023-06-14T03:21:48;19;18;15
57049;PMS7003;42935;50.966;16.992;2023-06-14T03:25:13;27;24;17
57049;PMS7003;42935;50.966;16.992;2023-06-14T03:28:32;20;18;15
57049;PMS7003;42935;50.966;16.992;2023-06-14T03:31:58;28;23;15
57049;PMS7003;42935;50.966;16.992;2023-06-14T03:35:19;22;18;13
57049;PMS7003;42935;50.966;16.992;2023-06-14T03:38:38;23;21;14
57049;PMS7003;42935;50.966;16.992;2023-06-14T03:41:56;20;18;14
57049;PMS7003;42935;50.966;16.992;2023-06-14T03:45:13;19;16;13
57049;PMS7003;42935;50.966;16.992;2023-06-14T03:48:28;20;17;12
57049;PMS7003;42935;50.966;16.992;2023-06-14T03:51:49;21;19;14
57049;PMS7003;42935;50.966;16.992;2023-06-14T03:55:06;21;18;13
57049;PMS7003;42935;50.966;16.992;2023-06-14T03:58:32;23;20;15
57049;PMS7003;42935;50.966;16.992;2023-06-14T04:01:51;20;19;15
57049;PMS7003;42935;50.966;16.992;2023-06-14T04:05:11;22;20;15
57049;PMS7003;42935;50.966;16.992;2023-06-14T04:08:31;21;17;11
57049;PMS7003;42935;50.966;16.992;2023-06-14T04:11:49;22;18;13
57049;PMS7003;42935;50.966;16.992;2023-06-14T04:15:07;23;20;15
57049;PMS7003;42935;50.966;16.992;2023-06-14T04:18:26;23;19;13
57049;PMS7003;42935;50.966;16.992;2023-06-14T04:21:47;26;21;14
57049;PMS7003;42935;50.966;16.992;2023-06-14T04:25:05;17;16;12
57049;PMS7003;42935;50.966;16.992;2023-06-14T04:28:20;23;19;13
57049;PMS7003;42935;50.966;16.992;2023-06-14T04:31:38;21;19;15
57049;PMS7003;42935;50.966;16.992;2023-06-14T04:34:53;19;19;13
57049;PMS7003;42935;50.966;16.992;2023-06-14T04:38:10;22;19;12
57049;PMS7003;42935;50.966;16.992;2023-06-14T04:41:30;23;22;15
57049;PMS7003;42935;50.966;16.992;2023-06-14T04:44:50;22;17;13
57049;PMS7003;42935;50.966;16.992;2023-06-14T04:48:15;23;19;15
57049;PMS7003;42935;50.966;16.992;2023-06-14T04:51:35;25;22;14
57049;PMS7003;42935;50.966;16.992;2023-06-14T04:54:58;26;22;15
57049;PMS7003;42935;50.966;16.992;2023-06-14T04:58:15;20;20;14
57049;PMS7003;42935;50.966;16.992;2023-06-14T05:01:34;23;20;14
57049;PMS7003;42935;50.966;16.992;2023-06-14T05:04:50;22;19;15
57049;PMS7003;42935;50.966;16.992;2023-06-14T05:08:08;19;18;13
57049;PMS7003;42935;50.966;16.992;2023-06-14T05:11:25;22;19;13
57049;PMS7003;42935;50.966;16.992;2023-06-14T05:14:38;20;18;13
57049;PMS7003;42935;50.966;16.992;2023-06-14T05:17:55;28;23;13
57049;PMS7003;42935;50.966;16.992;2023-06-14T05:21:12;19;17;12
57049;PMS7003;42935;50.966;16.992;2023-06-14T05:24:30;21;19;14
57049;PMS7003;42935;50.966;16.992;2023-06-14T05:27:48;25;20;13
57049;PMS7003;42935;50.966;16.992;2023-06-14T05:31:09;24;21;14
57049;PMS7003;42935;50.966;16.992;2023-06-14T05:34:27;27;23;18
57049;PMS7003;42935;50.966;16.992;2023-06-14T05:37:44;30;23;17
57049;PMS7003;42935;50.966;16.992;2023-06-14T05:41:06;25;23;16
57049;PMS7003;42935;50.966;16.992;2023-06-14T05:44:24;25;23;15
57049;PMS7003;42935;50.966;16.992;2023-06-14T05:47:37;21;20;14
57049;PMS7003;42935;50.966;16.992;2023-06-14T05:50:54;21;19;14
57049;PMS7003;42935;50.966;16.992;2023-06-14T05:54:09;23;20;14
57049;PMS7003;42935;50.966;16.992;2023-06-14T05:57:30;22;19;14
57049;PMS7003;42935;50.966;16.992;2023-06-14T06:00:47;23;19;13
57049;PMS7003;42935;50.966;16.992;2023-06-14T06:04:35;22;20;14
57049;PMS7003;42935;50.966;16.992;2023-06-14T06:07:50;23;21;13
57049;PMS7003;42935;50.966;16.992;2023-06-14T06:11:05;22;20;13
57049;PMS7003;42935;50.966;16.992;2023-06-14T06:14:22;22;20;14
57049;PMS7003;42935;50.966;16.992;2023-06-14T06:17:40;22;20;14
57049;PMS7003;42935;50.966;16.992;2023-06-14T06:21:03;26;24;15
57049;PMS7003;42935;50.966;16.992;2023-06-14T06:24:20;24;21;14
57049;PMS7003;42935;50.966;16.992;2023-06-14T06:27:39;23;20;15
57049;PMS7003;42935;50.966;16.992;2023-06-14T06:31:00;22;20;14
57049;PMS7003;42935;50.966;16.992;2023-06-14T06:34:20;22;20;14
57049;PMS7003;42935;50.966;16.992;2023-06-14T06:37:37;24;23;15
57049;PMS7003;42935;50.966;16.992;2023-06-14T06:40:58;27;23;16
57049;PMS7003;42935;50.966;16.992;2023-06-14T06:44:13;27;25;18
57049;PMS7003;42935;50.966;16.992;2023-06-14T06:47:28;31;29;18
57049;PMS7003;42935;50.966;16.992;2023-06-14T06:50:47;37;30;20
57049;PMS7003;42935;50.966;16.992;2023-06-14T06:54:08;31;28;18
57049;PMS7003;42935;50.966;16.992;2023-06-14T06:57:26;32;29;21
57049;PMS7003;42935;50.966;16.992;2023-06-14T07:00:48;34;29;18
57049;PMS7003;42935;50.966;16.992;2023-06-14T07:04:34;29;26;18
57049;PMS7003;42935;50.966;16.992;2023-06-14T07:07:48;30;25;17
57049;PMS7003;42935;50.966;16.992;2023-06-14T07:11:09;29;28;17
57049;PMS7003;42935;50.966;16.992;2023-06-14T07:14:30;28;26;17
57049;PMS7003;42935;50.966;16.992;2023-06-14T07:17:48;31;25;16
57049;PMS7003;42935;50.966;16.992;2023-06-14T07:21:08;28;26;17
57049;PMS7003;42935;50.966;16.992;2023-06-14T07:24:29;29;27;17
57049;PMS7003;42935;50.966;16.992;2023-06-14T07:27:46;30;27;18
57049;PMS7003;42935;50.966;16.992;2023-06-14T07:31:03;33;29;19
57049;PMS7003;42935;50.966;16.992;2023-06-14T07:34:24;24;23;16
57049;PMS7003;42935;50.966;16.992;2023-06-14T07:37:42;23;21;15
57049;PMS7003;42935;50.966;16.992;2023-06-14T07:41:01;32;28;16
57049;PMS7003;42935;50.966;16.992;2023-06-14T07:44:19;28;23;16
57049;PMS7003;42935;50.966;16.992;2023-06-14T07:47:36;23;21;15
57049;PMS7003;42935;50.966;16.992;2023-06-14T07:50:53;28;25;18
57049;PMS7003;42935;50.966;16.992;2023-06-14T07:54:14;27;25;17
57049;PMS7003;42935;50.966;16.992;2023-06-14T07:57:32;25;23;16
57049;PMS7003;42935;50.966;16.992;2023-06-14T08:00:50;23;20;14
57049;PMS7003;42935;50.966;16.992;2023-06-14T08:04:07;30;28;17
57049;PMS7003;42935;50.966;16.992;2023-06-14T08:07:22;29;26;17
57049;PMS7003;42935;50.966;16.992;2023-06-14T08:10:48;26;23;15
57049;PMS7003;42935;50.966;16.992;2023-06-14T08:14:12;29;26;16
57049;PMS7003;42935;50.966;16.992;2023-06-14T08:17:35;27;24;16
57049;PMS7003;42935;50.966;16.992;2023-06-14T08:20:51;31;25;17
57049;PMS7003;42935;50.966;16.992;2023-06-14T08:24:12;26;23;16
57049;PMS7003;42935;50.966;16.992;2023-06-14T08:27:28;25;22;15
57049;PMS7003;42935;50.966;16.992;2023-06-14T08:30:45;26;24;16
57049;PMS7003;42935;50.966;16.992;2023-06-14T08:33:58;27;25;15
57049;PMS7003;42935;50.966;16.992;2023-06-14T08:37:19;25;23;16
57049;PMS7003;42935;50.966;16.992;2023-06-14T08:40:45;27;24;16
57049;PMS7003;42935;50.966;16.992;2023-06-14T08:44:10;25;23;16
57049;PMS7003;42935;50.966;16.992;2023-06-14T08:47:27;24;20;15
57049;PMS7003;42935;50.966;16.992;2023-06-14T08:50:51;28;24;15
57049;PMS7003;42935;50.966;16.992;2023-06-14T08:54:16;27;25;15
57049;PMS7003;42935;50.966;16.992;2023-06-14T08:57:36;23;21;14
57049;PMS7003;42935;50.966;16.992;2023-06-14T09:00:53;24;21;15
57049;PMS7003;42935;50.966;16.992;2023-06-14T09:04:11;22;20;14
57049;PMS7003;42935;50.966;16.992;2023-06-14T09:07:30;23;21;14
57049;PMS7003;42935;50.966;16.992;2023-06-14T09:10:48;24;20;13
57049;PMS7003;42935;50.966;16.992;2023-06-14T09:14:03;21;17;13
57049;PMS7003;42935;50.966;16.992;2023-06-14T09:17:20;18;16;11
57049;PMS7003;42935;50.966;16.992;2023-06-14T09:20:39;20;19;13
57049;PMS7003;42935;50.966;16.992;2023-06-14T09:23:57;20;18;12
57049;PMS7003;42935;50.966;16.992;2023-06-14T09:27:14;19;17;11
57049;PMS7003;42935;50.966;16.992;2023-06-14T09:30:29;18;17;12
57049;PMS7003;42935;50.966;16.992;2023-06-14T09:33:47;20;18;13
57049;PMS7003;42935;50.966;16.992;2023-06-14T09:37:08;19;18;12
57049;PMS7003;42935;50.966;16.992;2023-06-14T09:40:26;19;16;11
57049;PMS7003;42935;50.966;16.992;2023-06-14T09:43:48;16;15;11
57049;PMS7003;42935;50.966;16.992;2023-06-14T09:47:07;17;17;12
57049;PMS7003;42935;50.966;16.992;2023-06-14T09:50:25;16;14;10
57049;PMS7003;42935;50.966;16.992;2023-06-14T09:53:42;15;13;10
57049;PMS7003;42935;50.966;16.992;2023-06-14T09:56:59;14;12;9
57049;PMS7003;42935;50.966;16.992;2023-06-14T10:00:47;19;18;12
57049;PMS7003;42935;50.966;16.992;2023-06-14T10:04:07;17;13;10
57049;PMS7003;42935;50.966;16.992;2023-06-14T10:07:25;17;14;10
57049;PMS7003;42935;50.966;16.992;2023-06-14T10:10:42;15;13;10
57049;PMS7003;42935;50.966;16.992;2023-06-14T10:13:59;15;13;10
57049;PMS7003;42935;50.966;16.992;2023-06-14T10:17:23;12;10;8
57049;PMS7003;42935;50.966;16.992;2023-06-14T10:24:15;14;13;9
57049;PMS7003;42935;50.966;16.992;2023-06-14T10:27:41;22;19;12
57049;PMS7003;42935;50.966;16.992;2023-06-14T10:34:29;16;12;10
57049;PMS7003;42935;50.966;16.992;2023-06-14T10:37:46;14;12;10
57049;PMS7003;42935;50.966;16.992;2023-06-14T10:40:59;15;13;11
57049;PMS7003;42935;50.966;16.992;2023-06-14T10:47:50;14;12;10
57049;PMS7003;42935;50.966;16.992;2023-06-14T10:51:06;13;11;9
57049;PMS7003;42935;50.966;16.992;2023-06-14T10:54:31;14;12;9
57049;PMS7003;42935;50.966;16.992;2023-06-14T10:57:53;11;10;8
57049;PMS7003;42935;50.966;16.992;2023-06-14T11:01:11;12;10;8
57049;PMS7003;42935;50.966;16.992;2023-06-14T11:11:29;9;7;5
57049;PMS7003;42935;50.966;16.992;2023-06-14T11:14:51;10;8;7
57049;PMS7003;42935;50.966;16.992;2023-06-14T11:18:08;10;8;7
57049;PMS7003;42935;50.966;16.992;2023-06-14T11:21:25;10;9;7
57049;PMS7003;42935;50.966;16.992;2023-06-14T11:24:43;13;8;7
57049;PMS7003;42935;50.966;16.992;2023-06-14T11:28:00;11;8;6
57049;PMS7003;42935;50.966;16.992;2023-06-14T11:31:19;8;8;6
57049;PMS7003;42935;50.966;16.992;2023-06-14T11:34:40;10;7;6
57049;PMS7003;42935;50.966;16.992;2023-06-14T11:37:57;11;9;7
57049;PMS7003;42935;50.966;16.992;2023-06-14T11:41:15;9;9;7
57049;PMS7003;42935;50.966;16.992;2023-06-14T11:44:32;8;7;6
57049;PMS7003;42935;50.966;16.992;2023-06-14T11:47:47;12;10;8
57049;PMS7003;42935;50.966;16.992;2023-06-14T11:51:02;10;9;7
57049;PMS7003;42935;50.966;16.992;2023-06-14T11:54:19;12;10;8
57049;PMS7003;42935;50.966;16.992;2023-06-14T11:57:36;10;9;7
57049;PMS7003;42935;50.966;16.992;2023-06-14T12:00:53;10;9;7
57049;PMS7003;42935;50.966;16.992;2023-06-14T12:04:06;15;9;7
57049;PMS7003;42935;50.966;16.992;2023-06-14T12:07:19;11;10;8
57049;PMS7003;42935;50.966;16.992;2023-06-14T12:10:41;10;9;8
57049;PMS7003;42935;50.966;16.992;2023-06-14T12:13:56;8;8;7
57049;PMS7003;42935;50.966;16.992;2023-06-14T12:17:16;9;9;7
57049;PMS7003;42935;50.966;16.992;2023-06-14T12:20:34;10;9;7
57049;PMS7003;42935;50.966;16.992;2023-06-14T12:23:56;9;9;7
57049;PMS7003;42935;50.966;16.992;2023-06-14T12:27:12;10;8;7
57049;PMS7003;42935;50.966;16.992;2023-06-14T12:30:32;10;9;7
57049;PMS7003;42935;50.966;16.992;2023-06-14T12:33:51;10;8;6
57049;PMS7003;42935;50.966;16.992;2023-06-14T12:37:09;10;9;7
57049;PMS7003;42935;50.966;16.992;2023-06-14T12:40:25;10;9;7
57049;PMS7003;42935;50.966;16.992;2023-06-14T12:43:43;9;9;7
57049;PMS7003;42935;50.966;16.992;2023-06-14T12:47:04;10;9;8
57049;PMS7003;42935;50.966;16.992;2023-06-14T12:50:22;10;9;7
57049;PMS7003;42935;50.966;16.992;2023-06-14T12:53:44;12;9;7
57049;PMS7003;42935;50.966;16.992;2023-06-14T12:57:02;10;8;7
57049;PMS7003;42935;50.966;16.992;2023-06-14T13:00:20;9;9;7
57049;PMS7003;42935;50.966;16.992;2023-06-14T13:03:36;10;9;7
57049;PMS7003;42935;50.966;16.992;2023-06-14T13:06:53;9;8;6
57049;PMS7003;42935;50.966;16.992;2023-06-14T13:10:07;11;10;7
57049;PMS7003;42935;50.966;16.992;2023-06-14T13:13:24;8;7;5
57049;PMS7003;42935;50.966;16.992;2023-06-14T13:16:37;9;8;7
57049;PMS7003;42935;50.966;16.992;2023-06-14T13:19:54;9;8;6
57049;PMS7003;42935;50.966;16.992;2023-06-14T13:23:15;11;8;6
57049;PMS7003;42935;50.966;16.992;2023-06-14T13:26:32;9;7;6
57049;PMS7003;42935;50.966;16.992;2023-06-14T13:29:54;10;9;7
57049;PMS7003;42935;50.966;16.992;2023-06-14T13:33:46;9;9;7
57049;PMS7003;42935;50.966;16.992;2023-06-14T13:37:03;10;9;7
57049;PMS7003;42935;50.966;16.992;2023-06-14T13:40:20;8;7;6
57049;PMS7003;42935;50.966;16.992;2023-06-14T13:43:37;9;9;7
57049;PMS7003;42935;50.966;16.992;2023-06-14T13:46:55;12;9;7
57049;PMS7003;42935;50.966;16.992;2023-06-14T13:50:12;11;9;7
57049;PMS7003;42935;50.966;16.992;2023-06-14T13:53:32;21;19;12
57049;PMS7003;42935;50.966;16.992;2023-06-14T13:57:21;14;12;9
57049;PMS7003;42935;50.966;16.992;2023-06-14T14:00:38;11;9;8
57049;PMS7003;42935;50.966;16.992;2023-06-14T14:03:55;10;9;6
57049;PMS7003;42935;50.966;16.992;2023-06-14T14:07:13;11;11;8
57049;PMS7003;42935;50.966;16.992;2023-06-14T14:10:30;15;13;10
57049;PMS7003;42935;50.966;16.992;2023-06-14T14:13:49;13;12;9
57049;PMS7003;42935;50.966;16.992;2023-06-14T14:17:38;14;13;10
57049;PMS7003;42935;50.966;16.992;2023-06-14T14:20:54;12;12;10
57049;PMS7003;42935;50.966;16.992;2023-06-14T14:24:44;15;13;11
57049;PMS7003;42935;50.966;16.992;2023-06-14T14:28:33;14;11;9
57049;PMS7003;42935;50.966;16.992;2023-06-14T14:31:47;12;12;9
57049;PMS7003;42935;50.966;16.992;2023-06-14T14:35:05;11;10;9
57049;PMS7003;42935;50.966;16.992;2023-06-14T14:38:22;13;13;10
57049;PMS7003;42935;50.966;16.992;2023-06-14T14:41:41;13;12;10
57049;PMS7003;42935;50.966;16.992;2023-06-14T14:44:58;15;14;11
57049;PMS7003;42935;50.966;16.992;2023-06-14T14:48:16;12;11;9
57049;PMS7003;42935;50.966;16.992;2023-06-14T14:51:32;17;16;12
57049;PMS7003;42935;50.966;16.992;2023-06-14T14:54:49;28;25;19
57049;PMS7003;42935;50.966;16.992;2023-06-14T14:58:38;22;21;14
57049;PMS7003;42935;50.966;16.992;2023-06-14T15:01:54;16;15;11
57049;PMS7003;42935;50.966;16.992;2023-06-14T15:05:12;17;14;11
57049;PMS7003;42935;50.966;16.992;2023-06-14T15:08:26;17;14;11
57049;PMS7003;42935;50.966;16.992;2023-06-14T15:11:43;15;14;9
57049;PMS7003;42935;50.966;16.992;2023-06-14T15:15:03;18;15;11
57049;PMS7003;42935;50.966;16.992;2023-06-14T15:18:21;21;16;10
57049;PMS7003;42935;50.966;16.992;2023-06-14T15:21:35;17;14;11
57049;PMS7003;42935;50.966;16.992;2023-06-14T15:24:52;16;14;10
57049;PMS7003;42935;50.966;16.992;2023-06-14T15:28:14;17;14;11
57049;PMS7003;42935;50.966;16.992;2023-06-14T15:31:31;17;15;12
57049;PMS7003;42935;50.966;16.992;2023-06-14T15:34:51;17;15;12
57049;PMS7003;42935;50.966;16.992;2023-06-14T15:38:09;16;15;11
57049;PMS7003;42935;50.966;16.992;2023-06-14T15:41:26;20;18;13
57049;PMS7003;42935;50.966;16.992;2023-06-14T15:44:43;22;19;13
57049;PMS7003;42935;50.966;16.992;2023-06-14T15:48:03;22;18;13
57049;PMS7003;42935;50.966;16.992;2023-06-14T15:51:21;31;28;19
57049;PMS7003;42935;50.966;16.992;2023-06-14T15:54:34;32;27;18
57049;PMS7003;42935;50.966;16.992;2023-06-14T15:57:57;26;24;17
57049;PMS7003;42935;50.966;16.992;2023-06-14T16:01:14;24;21;16
57049;PMS7003;42935;50.966;16.992;2023-06-14T16:04:35;25;22;16
57049;PMS7003;42935;50.966;16.992;2023-06-14T16:07:52;18;16;11
57049;PMS7003;42935;50.966;16.992;2023-06-14T16:11:14;16;15;10
57049;PMS7003;42935;50.966;16.992;2023-06-14T16:15:03;16;14;9
57049;PMS7003;42935;50.966;16.992;2023-06-14T16:18:20;15;15;11
57049;PMS7003;42935;50.966;16.992;2023-06-14T16:21:37;13;13;10
57049;PMS7003;42935;50.966;16.992;2023-06-14T16:24:52;14;14;11
57049;PMS7003;42935;50.966;16.992;2023-06-14T16:28:07;16;14;11
57049;PMS7003;42935;50.966;16.992;2023-06-14T16:31:24;16;14;11
57049;PMS7003;42935;50.966;16.992;2023-06-14T16:34:45;19;15;11
57049;PMS7003;42935;50.966;16.992;2023-06-14T16:38:05;18;16;11
57049;PMS7003;42935;50.966;16.992;2023-06-14T16:41:25;18;16;11
57049;PMS7003;42935;50.966;16.992;2023-06-14T16:44:37;18;18;11
57049;PMS7003;42935;50.966;16.992;2023-06-14T16:47:54;17;16;11
57049;PMS7003;42935;50.966;16.992;2023-06-14T16:51:15;21;18;14
57049;PMS7003;42935;50.966;16.992;2023-06-14T16:54:28;20;18;14
57049;PMS7003;42935;50.966;16.992;2023-06-14T16:57:45;20;17;13
57049;PMS7003;42935;50.966;16.992;2023-06-14T17:01:04;21;20;15
57049;PMS7003;42935;50.966;16.992;2023-06-14T17:04:24;18;17;13
57049;PMS7003;42935;50.966;16.992;2023-06-14T17:07:44;23;20;14
57049;PMS7003;42935;50.966;16.992;2023-06-14T17:11:01;21;19;15
57049;PMS7003;42935;50.966;16.992;2023-06-14T17:14:19;23;20;15
57049;PMS7003;42935;50.966;16.992;2023-06-14T17:17:36;21;20;14
57049;PMS7003;42935;50.966;16.992;2023-06-14T17:20:52;23;22;16
57049;PMS7003;42935;50.966;16.992;2023-06-14T17:24:10;25;21;16
57049;PMS7003;42935;50.966;16.992;2023-06-14T17:28:01;24;23;16
57049;PMS7003;42935;50.966;16.992;2023-06-14T17:31:20;22;21;17
57049;PMS7003;42935;50.966;16.992;2023-06-14T17:34:42;24;23;17
57049;PMS7003;42935;50.966;16.992;2023-06-14T17:38:03;25;22;16
57049;PMS7003;42935;50.966;16.992;2023-06-14T17:41:24;20;20;15
57049;PMS7003;42935;50.966;16.992;2023-06-14T17:44:49;27;25;17
57049;PMS7003;42935;50.966;16.992;2023-06-14T17:48:15;27;25;17
57049;PMS7003;42935;50.966;16.992;2023-06-14T17:51:32;29;24;17
57049;PMS7003;42935;50.966;16.992;2023-06-14T17:54:49;33;29;21
57049;PMS7003;42935;50.966;16.992;2023-06-14T17:58:02;52;40;25
57049;PMS7003;42935;50.966;16.992;2023-06-14T18:01:18;34;29;20
57049;PMS7003;42935;50.966;16.992;2023-06-14T18:04:40;29;28;19
57049;PMS7003;42935;50.966;16.992;2023-06-14T18:07:59;38;31;21
57049;PMS7003;42935;50.966;16.992;2023-06-14T18:11:16;29;26;19
57049;PMS7003;42935;50.966;16.992;2023-06-14T18:15:12;29;25;17
57049;PMS7003;42935;50.966;16.992;2023-06-14T18:18:29;30;26;17
57049;PMS7003;42935;50.966;16.992;2023-06-14T18:21:49;23;21;15
57049;PMS7003;42935;50.966;16.992;2023-06-14T18:25:06;26;25;17
57049;PMS7003;42935;50.966;16.992;2023-06-14T18:28:24;24;23;15
57049;PMS7003;42935;50.966;16.992;2023-06-14T18:31:41;25;23;16
57049;PMS7003;42935;50.966;16.992;2023-06-14T18:35:03;21;19;13
57049;PMS7003;42935;50.966;16.992;2023-06-14T18:38:16;24;22;17
57049;PMS7003;42935;50.966;16.992;2023-06-14T18:41:32;24;20;15
57049;PMS7003;42935;50.966;16.992;2023-06-14T18:44:52;23;21;16
57049;PMS7003;42935;50.966;16.992;2023-06-14T18:48:09;25;21;16
57049;PMS7003;42935;50.966;16.992;2023-06-14T18:52:00;25;24;18
57049;PMS7003;42935;50.966;16.992;2023-06-14T18:55:15;24;22;17
57049;PMS7003;42935;50.966;16.992;2023-06-14T18:59:05;26;22;16
57049;PMS7003;42935;50.966;16.992;2023-06-14T19:02:26;23;21;15
57049;PMS7003;42935;50.966;16.992;2023-06-14T19:05:47;25;21;14
57049;PMS7003;42935;50.966;16.992;2023-06-14T19:09:05;24;21;16
57049;PMS7003;42935;50.966;16.992;2023-06-14T19:12:33;24;21;14
57049;PMS7003;42935;50.966;16.992;2023-06-14T19:15:55;28;22;16
57049;PMS7003;42935;50.966;16.992;2023-06-14T19:19:47;26;23;16
57049;PMS7003;42935;50.966;16.992;2023-06-14T19:23:08;24;23;15
57049;PMS7003;42935;50.966;16.992;2023-06-14T19:26:21;24;21;17
57049;PMS7003;42935;50.966;16.992;2023-06-14T19:29:38;26;24;16
57049;PMS7003;42935;50.966;16.992;2023-06-14T19:32:55;25;22;15
57049;PMS7003;42935;50.966;16.992;2023-06-14T19:36:15;27;24;16
57049;PMS7003;42935;50.966;16.992;2023-06-14T19:39:35;26;22;15
57049;PMS7003;42935;50.966;16.992;2023-06-14T19:42:52;24;21;17
57049;PMS7003;42935;50.966;16.992;2023-06-14T19:46:13;27;23;16
57049;PMS7003;42935;50.966;16.992;2023-06-14T19:49:32;28;24;15
57049;PMS7003;42935;50.966;16.992;2023-06-14T19:52:53;31;27;18
57049;PMS7003;42935;50.966;16.992;2023-06-14T19:56:14;33;27;18
57049;PMS7003;42935;50.966;16.992;2023-06-14T19:59:33;28;26;18
57049;PMS7003;42935;50.966;16.992;2023-06-14T20:02:50;29;27;19
57049;PMS7003;42935;50.966;16.992;2023-06-14T20:06:03;32;28;19
57049;PMS7003;42935;50.966;16.992;2023-06-14T20:09:20;26;24;18
57049;PMS7003;42935;50.966;16.992;2023-06-14T20:12:43;33;28;18
57049;PMS7003;42935;50.966;16.992;2023-06-14T20:16:04;30;28;18
57049;PMS7003;42935;50.966;16.992;2023-06-14T20:19:25;31;27;18
57049;PMS7003;42935;50.966;16.992;2023-06-14T20:22:46;32;28;18
57049;PMS7003;42935;50.966;16.992;2023-06-14T20:26:03;30;25;18
57049;PMS7003;42935;50.966;16.992;2023-06-14T20:29:20;29;25;19
57049;PMS7003;42935;50.966;16.992;2023-06-14T20:32:41;26;24;16
57049;PMS7003;42935;50.966;16.992;2023-06-14T20:35:58;27;24;17
57049;PMS7003;42935;50.966;16.992;2023-06-14T20:39:19;32;28;19
57049;PMS7003;42935;50.966;16.992;2023-06-14T20:42:38;36;28;20
57049;PMS7003;42935;50.966;16.992;2023-06-14T20:46:01;38;28;18
57049;PMS7003;42935;50.966;16.992;2023-06-14T20:49:20;28;24;17
57049;PMS7003;42935;50.966;16.992;2023-06-14T20:52:41;28;25;18
57049;PMS7003;42935;50.966;16.992;2023-06-14T20:55:58;31;26;16
57049;PMS7003;42935;50.966;16.992;2023-06-14T20:59:13;30;26;18
57049;PMS7003;42935;50.966;16.992;2023-06-14T21:02:30;31;26;18
57049;PMS7003;42935;50.966;16.992;2023-06-14T21:05:46;25;24;18
57049;PMS7003;42935;50.966;16.992;2023-06-14T21:09:03;28;27;19
57049;PMS7003;42935;50.966;16.992;2023-06-14T21:12:26;32;28;19
57049;PMS7003;42935;50.966;16.992;2023-06-14T21:15:41;34;30;20
57049;PMS7003;42935;50.966;16.992;2023-06-14T21:18:59;27;26;17
57049;PMS7003;42935;50.966;16.992;2023-06-14T21:22:21;34;27;17
57049;PMS7003;42935;50.966;16.992;2023-06-14T21:25:38;28;26;17
57049;PMS7003;42935;50.966;16.992;2023-06-14T21:28:53;26;25;17
57049;PMS7003;42935;50.966;16.992;2023-06-14T21:32:10;29;26;20